TNCCSMJP

Guest
Details From TNCC - Curacao Hato
To SMJP - Paramaribo Johan A Pengel Intl
Flight Number -
Tags Generated
Created
Modified
Stats Distance 912 nm / 1,688 km
Max Altitude 0 ft / 0 m
Waypoints 5
Social Downloads 11
Likes 0
Share VATSIM

Download

Looking for another format? Having issues loading an existing format? Contact us
Advertisement - Login to hide

Notes

Generated

Route

TNCC DAGOX KALUP R1531 SMJP

ID Type Via Altitude Latitude Longitude Leg Dist Tot Dist Heading (true) Name
O TNCC APT - 0 ft / 0 m 12.19211˚ -68.97514˚ - 0 nm - -
DAGOX FIX - 0 ft / 0 m 10.65808˚ -65.57533˚ 220 nm 220 nm 114° / 115° -
KALUP FIX - 0 ft / 0 m 6.98644˚ -58.34822˚ 482 nm 702 nm 117° / 118° -
R1531 FIX - 0 ft / 0 m 5.45274˚ -55.20349˚ 209 nm 911 nm 116° / 116° -
O SMJP APT - 0 ft / 0 m 5.45274˚ -55.20349˚ 0 nm 911 nm 0° / 180° -

Altitude Profile

Advertisement - Login to hide

Weather


0- 5 10 15 20 25 30 35+ Temperature / ° C

Clouds and Precipitation
Forecast for 2017-12-13 12:00 UTC. Updated an hour ago

Ground ~20,000 ft ~40,000 ft Winds

TNCC

Details ICAO TNCC (CUR)
Name Curacao Hato
Region Caribbean Netherlands, Aruba, Curaçao, Sint Maarten
Timezone Unknown (UTC+0.0)
Stats Elevation 29 ft / 9 m (AMSL)
Location 12.188853° -68.959803°
Runways 1
Magnetic Variation 11.330° W

METAR

TNCC 131000Z 15005KT 9999 FEW017 24/19 Q1013 NOSIG

Decode

TAF

Not found

Departure Runways

ID Width Length Bearing (true) Bearing (mag) Surface Threshold Offset Overrun Length
11 197 ft / 60 m 11,197 ft / 3,413 m 102.24° 113.57° Asphalt 300 ft / 91 m 0 ft / 0 m
29 197 ft / 60 m 11,197 ft / 3,413 m 282.24° 293.57° Asphalt 300 ft / 91 m 200 ft / 61 m

SMJP

Details ICAO SMJP (PBM)
Name Paramaribo Johan A Pengel Intl
Region Suriname
Timezone America/Paramaribo (UTC-3.0)
Stats Elevation 59 ft / 18 m (AMSL)
Location 5.452831° -55.187783°
Runways 1
Magnetic Variation 17.548° W

METAR

SMJP 131000Z VRB01KT 5000 BR FEW008 SCT035 23/23 Q1012 NOSIG

Decode

TAF

Not found

Destination Runways

ID Width Length Bearing (true) Bearing (mag) Surface Threshold Offset Overrun Length
11 148 ft / 45 m 11,415 ft / 3,479 m 89.66° 107.21° Concrete 0 ft / 0 m 164 ft / 50 m
29 148 ft / 45 m 11,415 ft / 3,479 m 269.67° 287.22° Concrete 0 ft / 0 m 197 ft / 60 m

Approach Navaids

Runway Type Ident Frequency Range Bearing (true) Bearing (mag) Slope Elevation
11 Localiser IZAN 109.90 MHz 18 nm / 33 km 89.67° 107.21° - 59 ft / 18 m (AMSL)
11 Glidescope IZAN 109.90 MHz 10 nm / 19 km 89.67° 107.21° 3.00° 56 ft / 17 m (AMSL)

Popular Alternatives